Time;durP1;ratioP1;P1;durP2;ratioP2;P2;SDS_P1;SDS_P2;PMS_P1;PMS_P2;Temp;Humidity;BMP_temperature;BMP_pressure;BME280_temperature;BME280_humidity;BME280_pressure;Samples;Min_cycle;Max_cycle;Signal;HPM_P1;HPM_P2
2021/06/02 00:00:59;;;;;;;2.73;1.90;;;;;;;;;;10333372;28;20143;-63
2021/06/02 00:05:56;;;;;;;1.42;1.23;;;;;;;;;;10325089;28;20048;-63
2021/06/02 00:10:55;;;;;;;2.77;1.63;;;;;;;;;;10299536;28;20037;-66
2021/06/02 00:15:53;;;;;;;1.67;0.65;;;;;;;;;;10310190;28;20471;-63
2021/06/02 00:20:51;;;;;;;2.07;1.23;;;;;;;;;;10318478;28;20395;-64
2021/06/02 00:25:48;;;;;;;8.15;3.13;;;;;;;;;;10299185;28;20106;-64
2021/06/02 00:30:46;;;;;;;0.33;0.33;;;;;;;;;;10317606;28;20039;-65
2021/06/02 00:35:44;;;;;;;1.77;1.23;;;;;;;;;;10318307;28;20033;-65
2021/06/02 00:40:48;;;;;;;0.77;0.50;;;;;;;;;;10281304;28;20037;-64
2021/06/02 00:45:47;;;;;;;1.50;1.05;;;;;;;;;;10308971;28;20471;-65
2021/06/02 00:50:45;;;;;;;2.97;1.87;;;;;;;;;;10325045;28;20124;-63
2021/06/02 00:55:43;;;;;;;0.20;0.20;;;;;;;;;;10307570;28;20036;-63
2021/06/02 01:00:40;;;;;;;3.87;1.83;;;;;;;;;;10316363;28;20037;-64
2021/06/02 01:05:38;;;;;;;8.60;5.53;;;;;;;;;;10311645;28;20068;-65
2021/06/02 01:10:36;;;;;;;10.57;5.10;;;;;;;;;;10303928;28;20119;-64
2021/06/02 01:15:34;;;;;;;10.25;5.28;;;;;;;;;;10316586;28;20082;-64
2021/06/02 01:20:32;;;;;;;9.52;5.35;;;;;;;;;;10306489;28;20040;-64
2021/06/02 01:25:30;;;;;;;9.48;5.82;;;;;;;;;;10302130;28;21029;-64
2021/06/02 01:30:27;;;;;;;8.67;4.97;;;;;;;;;;10321831;28;20039;-65
2021/06/02 01:35:44;;;;;;;9.60;5.07;;;;;;;;;;10329644;28;20437;-64
2021/06/02 01:40:47;;;;;;;8.27;4.93;;;;;;;;;;10330052;28;20028;-64
2021/06/02 01:45:57;;;;;;;8.68;4.72;;;;;;;;;;10334801;28;20131;-64
2021/06/02 01:51:15;;;;;;;8.88;5.20;;;;;;;;;;10322009;28;20033;-65
2021/06/02 01:56:15;;;;;;;6.35;3.63;;;;;;;;;;10311436;28;20110;-63
2021/06/02 02:01:31;;;;;;;8.55;4.55;;;;;;;;;;10313152;28;20037;-64
2021/06/02 02:06:49;;;;;;;7.22;4.45;;;;;;;;;;10309797;28;20123;-63
2021/06/02 02:11:46;;;;;;;7.68;4.40;;;;;;;;;;10297136;28;20044;-64
2021/06/02 02:16:52;;;;;;;7.80;4.53;;;;;;;;;;10303370;28;20029;-65
2021/06/02 02:21:50;;;;;;;12.95;4.97;;;;;;;;;;10301978;28;20520;-65
2021/06/02 02:26:50;;;;;;;6.93;4.50;;;;;;;;;;10304000;28;20477;-63
2021/06/02 02:32:14;;;;;;;12.02;4.80;;;;;;;;;;10313486;28;20060;-64
2021/06/02 02:37:31;;;;;;;6.65;4.53;;;;;;;;;;10280498;28;20036;-65
2021/06/02 02:42:40;;;;;;;6.93;3.88;;;;;;;;;;10307853;28;21409;-64
2021/06/02 02:47:41;;;;;;;9.48;4.68;;;;;;;;;;10335277;28;20410;-65
2021/06/02 02:52:41;;;;;;;6.95;4.30;;;;;;;;;;10328079;28;20059;-64
2021/06/02 02:57:45;;;;;;;5.38;3.55;;;;;;;;;;10321376;28;20032;-63
2021/06/02 03:02:48;;;;;;;7.47;3.90;;;;;;;;;;10338372;28;20039;-66
2021/06/02 03:07:49;;;;;;;4.85;3.42;;;;;;;;;;10318139;28;20037;-63
2021/06/02 03:12:56;;;;;;;5.93;3.38;;;;;;;;;;10303446;28;20479;-65
2021/06/02 03:17:59;;;;;;;4.25;2.88;;;;;;;;;;10326495;28;20068;-63
2021/06/02 03:22:57;;;;;;;6.28;3.08;;;;;;;;;;10321150;28;20034;-63
2021/06/02 03:27:54;;;;;;;4.13;3.20;;;;;;;;;;10290403;28;20056;-65
2021/06/02 03:33:15;;;;;;;3.70;2.43;;;;;;;;;;10331597;28;20032;-62
2021/06/02 03:38:31;;;;;;;5.38;2.70;;;;;;;;;;10309311;28;20033;-64
2021/06/02 03:43:31;;;;;;;3.65;2.42;;;;;;;;;;10316427;28;20251;-64
2021/06/02 03:48:46;;;;;;;2.95;2.13;;;;;;;;;;10331759;28;20045;-65
2021/06/02 03:54:06;;;;;;;2.83;2.30;;;;;;;;;;10309140;28;20043;-64
2021/06/02 03:59:13;;;;;;;3.83;2.53;;;;;;;;;;10324257;28;20048;-63
2021/06/02 04:04:29;;;;;;;3.20;2.35;;;;;;;;;;10319654;28;20030;-63
2021/06/02 04:09:28;;;;;;;3.97;1.92;;;;;;;;;;10320801;28;20037;-63
2021/06/02 04:14:30;;;;;;;2.70;1.63;;;;;;;;;;10318095;28;20045;-64
2021/06/02 04:19:29;;;;;;;6.15;2.00;;;;;;;;;;10329634;28;20033;-61
2021/06/02 04:24:28;;;;;;;3.78;2.00;;;;;;;;;;10309253;28;20910;-65
2021/06/02 04:29:26;;;;;;;4.43;1.80;;;;;;;;;;10303973;28;20048;-64
2021/06/02 04:34:25;;;;;;;1.65;0.90;;;;;;;;;;10306747;28;20139;-64
2021/06/02 04:39:23;;;;;;;1.73;0.82;;;;;;;;;;10325264;28;20040;-64
2021/06/02 04:44:23;;;;;;;0.20;0.20;;;;;;;;;;10316826;28;20045;-65
2021/06/02 04:49:27;;;;;;;0.40;0.40;;;;;;;;;;10298810;28;20053;-63
2021/06/02 04:54:44;;;;;;;0.60;0.60;;;;;;;;;;10299353;28;20048;-64
2021/06/02 05:00:00;;;;;;;0.95;0.80;;;;;;;;;;10296224;28;20458;-64
2021/06/02 05:05:17;;;;;;;0.90;0.73;;;;;;;;;;10329102;28;20033;-64
2021/06/02 05:10:20;;;;;;;0.77;0.70;;;;;;;;;;10328712;28;20033;-64
2021/06/02 05:15:47;;;;;;;1.48;0.98;;;;;;;;;;10319372;28;20422;-63
2021/06/02 05:26:17;;;;;;;1.67;0.60;;;;;;;;;;10328831;28;20121;-65
2021/06/02 05:31:30;;;;;;;1.00;0.80;;;;;;;;;;10247271;28;20067;-65
2021/06/02 05:36:31;;;;;;;1.60;0.52;;;;;;;;;;10319984;28;20045;-66
2021/06/02 05:41:36;;;;;;;0.75;0.32;;;;;;;;;;10320710;28;20076;-64
2021/06/02 05:46:52;;;;;;;0.40;0.40;;;;;;;;;;10304311;28;20021;-66
2021/06/02 05:51:55;;;;;;;1.23;0.80;;;;;;;;;;10316929;28;20523;-65
2021/06/02 05:56:59;;;;;;;0.65;0.63;;;;;;;;;;10298660;28;20060;-65
2021/06/02 06:01:57;;;;;;;3.40;0.75;;;;;;;;;;10297857;28;20064;-65
2021/06/02 06:07:09;;;;;;;0.68;0.40;;;;;;;;;;10288135;28;20094;-65
2021/06/02 06:12:07;;;;;;;0.52;0.50;;;;;;;;;;10293440;28;20036;-66
2021/06/02 06:17:13;;;;;;;0.60;0.53;;;;;;;;;;10310863;28;20319;-65
2021/06/02 06:22:23;;;;;;;1.25;0.43;;;;;;;;;;10317521;28;20036;-66
2021/06/02 06:27:47;;;;;;;2.38;0.70;;;;;;;;;;10316583;28;20518;-66
2021/06/02 06:32:45;;;;;;;1.95;0.60;;;;;;;;;;10313811;28;20474;-65
2021/06/02 06:37:42;;;;;;;;;;;;;;;;;;10309627;28;20389;-65
2021/06/02 06:42:41;;;;;;;1.50;0.60;;;;;;;;;;10309396;28;20686;-65
2021/06/02 06:47:39;;;;;;;2.33;0.98;;;;;;;;;;10319575;28;20288;-65
2021/06/02 06:52:37;;;;;;;1.95;1.33;;;;;;;;;;10319152;28;20033;-66
2021/06/02 06:57:37;;;;;;;1.13;0.82;;;;;;;;;;10320463;28;20541;-66
2021/06/02 07:02:35;;;;;;;0.50;0.40;;;;;;;;;;10295478;28;20037;-66
2021/06/02 07:07:33;;;;;;;;;;;;;;;;;;10297001;28;20554;-66
2021/06/02 07:12:31;;;;;;;3.20;0.77;;;;;;;;;;10318117;28;19990;-66
2021/06/02 07:17:29;;;;;;;1.58;0.70;;;;;;;;;;10292193;28;21373;-66
2021/06/02 07:22:27;;;;;;;0.70;0.68;;;;;;;;;;10316479;28;20848;-66
2021/06/02 07:27:25;;;;;;;2.97;0.88;;;;;;;;;;10315312;28;20029;-66
2021/06/02 07:32:22;;;;;;;1.92;0.47;;;;;;;;;;10312153;28;20049;-66
2021/06/02 07:37:19;;;;;;;1.57;0.87;;;;;;;;;;10315808;28;20128;-66
2021/06/02 07:42:17;;;;;;;4.30;0.53;;;;;;;;;;10315220;28;20035;-66
2021/06/02 07:47:14;;;;;;;2.40;0.80;;;;;;;;;;10303764;28;20055;-66
2021/06/02 07:52:12;;;;;;;;;;;;;;;;;;10318235;28;20792;-66
2021/06/02 07:57:09;;;;;;;1.67;0.90;;;;;;;;;;10306419;28;20765;-65
2021/06/02 08:02:07;;;;;;;;;;;;;;;;;;10303590;28;20060;-65
2021/06/02 08:07:07;;;;;;;2.30;1.05;;;;;;;;;;10300898;28;19916;-66
2021/06/02 08:12:06;;;;;;;2.22;0.50;;;;;;;;;;10287424;28;20397;-65
2021/06/02 08:17:04;;;;;;;1.02;0.90;;;;;;;;;;10299931;28;20029;-66
2021/06/02 08:22:01;;;;;;;;;;;;;;;;;;10280665;28;20052;-65
2021/06/02 08:26:59;;;;;;;3.47;0.90;;;;;;;;;;10302760;28;19967;-66
2021/06/02 08:31:56;;;;;;;3.22;0.95;;;;;;;;;;10298790;28;20114;-66
2021/06/02 08:36:54;;;;;;;1.42;0.57;;;;;;;;;;10304537;28;20090;-66
2021/06/02 08:41:52;;;;;;;3.10;1.00;;;;;;;;;;10293145;28;20558;-66
2021/06/02 08:46:49;;;;;;;1.27;1.02;;;;;;;;;;10282868;28;20060;-65
2021/06/02 08:51:47;;;;;;;2.40;0.98;;;;;;;;;;10283170;28;20518;-66
2021/06/02 08:56:44;;;;;;;2.88;1.10;;;;;;;;;;10281331;28;20247;-65
2021/06/02 09:01:42;;;;;;;1.65;0.75;;;;;;;;;;10301063;28;20013;-66
2021/06/02 09:06:41;;;;;;;1.52;0.80;;;;;;;;;;10296539;28;20033;-66
2021/06/02 09:11:43;;;;;;;2.38;1.27;;;;;;;;;;10298147;28;20047;-66
2021/06/02 09:16:47;;;;;;;1.75;0.93;;;;;;;;;;10305223;28;20183;-66
2021/06/02 09:21:44;;;;;;;4.68;1.45;;;;;;;;;;10279322;28;20047;-66
2021/06/02 09:26:46;;;;;;;0.83;0.80;;;;;;;;;;10298459;28;20035;-66
2021/06/02 09:31:44;;;;;;;1.55;0.70;;;;;;;;;;10320057;28;20287;-65
2021/06/02 09:36:42;;;;;;;0.98;0.73;;;;;;;;;;10305477;28;20581;-66
2021/06/02 09:41:40;;;;;;;4.15;1.90;;;;;;;;;;10304398;28;20186;-65
2021/06/02 09:46:55;;;;;;;3.23;1.20;;;;;;;;;;10298913;28;20040;-66
2021/06/02 09:51:53;;;;;;;6.68;1.77;;;;;;;;;;10321514;28;20120;-65
2021/06/02 09:56:50;;;;;;;1.55;1.25;;;;;;;;;;10326284;28;20226;-66
2021/06/02 10:01:52;;;;;;;2.63;1.38;;;;;;;;;;10311390;28;20048;-66
2021/06/02 10:06:50;;;;;;;2.05;1.38;;;;;;;;;;10320047;28;20041;-66
2021/06/02 10:11:57;;;;;;;2.67;0.70;;;;;;;;;;10319302;28;20033;-66
2021/06/02 10:16:55;;;;;;;3.30;1.23;;;;;;;;;;10331003;28;20474;-67
2021/06/02 10:21:52;;;;;;;2.55;0.95;;;;;;;;;;10314800;28;20396;-66
2021/06/02 10:26:50;;;;;;;0.73;0.65;;;;;;;;;;10323854;28;20045;-66
2021/06/02 10:31:47;;;;;;;3.10;1.67;;;;;;;;;;10286733;28;20038;-66
2021/06/02 10:36:45;;;;;;;3.03;1.30;;;;;;;;;;10307473;28;20119;-65
2021/06/02 10:41:52;;;;;;;2.70;1.87;;;;;;;;;;10311629;28;20508;-66
2021/06/02 10:46:50;;;;;;;1.80;1.10;;;;;;;;;;10325535;28;20684;-66
2021/06/02 10:51:48;;;;;;;2.58;1.65;;;;;;;;;;10290000;28;20149;-66
2021/06/02 10:56:56;;;;;;;6.10;2.65;;;;;;;;;;10304352;28;20036;-66
2021/06/02 11:02:03;;;;;;;3.25;2.13;;;;;;;;;;10330860;28;20071;-66
2021/06/02 11:07:19;;;;;;;4.80;2.42;;;;;;;;;;10300748;28;20045;-65
2021/06/02 11:12:17;;;;;;;3.00;1.52;;;;;;;;;;10292085;28;20044;-66
2021/06/02 11:17:16;;;;;;;1.17;0.77;;;;;;;;;;10318418;28;20032;-66
2021/06/02 11:22:32;;;;;;;7.13;2.70;;;;;;;;;;10316287;28;20033;-65
2021/06/02 11:27:30;;;;;;;5.53;1.85;;;;;;;;;;10270091;28;20969;-66
2021/06/02 11:32:28;;;;;;;3.88;2.42;;;;;;;;;;10328850;28;20136;-65
2021/06/02 11:37:27;;;;;;;3.08;1.90;;;;;;;;;;10312498;28;20453;-65
2021/06/02 11:42:27;;;;;;;3.78;1.73;;;;;;;;;;10293315;28;20041;-66
2021/06/02 11:47:25;;;;;;;12.18;2.25;;;;;;;;;;10311004;28;20084;-66
2021/06/02 11:52:23;;;;;;;3.13;1.77;;;;;;;;;;10284717;28;20079;-65
2021/06/02 11:57:22;;;;;;;4.87;2.03;;;;;;;;;;10297619;28;20492;-66
2021/06/02 12:02:19;;;;;;;2.75;2.00;;;;;;;;;;10302183;28;20276;-66
2021/06/02 12:07:24;;;;;;;0.98;0.77;;;;;;;;;;10297326;28;20041;-66
2021/06/02 12:12:22;;;;;;;0.65;0.40;;;;;;;;;;10287694;28;20045;-67
2021/06/02 12:17:26;;;;;;;0.82;0.68;;;;;;;;;;10297073;28;20396;-66
2021/06/02 12:22:25;;;;;;;2.05;1.13;;;;;;;;;;10294169;28;20112;-66
2021/06/02 12:27:22;;;;;;;3.88;1.80;;;;;;;;;;10287933;28;20068;-66
2021/06/02 12:32:20;;;;;;;3.90;1.47;;;;;;;;;;10321934;28;20120;-66
2021/06/02 12:37:17;;;;;;;1.58;0.90;;;;;;;;;;10275872;28;20049;-66
2021/06/02 12:42:15;;;;;;;3.33;1.85;;;;;;;;;;10318089;28;20082;-67
2021/06/02 12:47:14;;;;;;;1.57;1.33;;;;;;;;;;10301234;28;20041;-66
2021/06/02 12:52:14;;;;;;;1.40;0.82;;;;;;;;;;10295120;28;20040;-66
2021/06/02 12:57:11;;;;;;;2.53;1.55;;;;;;;;;;10309824;28;20412;-66
2021/06/02 13:02:12;;;;;;;6.63;2.30;;;;;;;;;;10311488;28;20479;-67
2021/06/02 13:07:11;;;;;;;2.72;1.77;;;;;;;;;;10313901;28;20299;-66
2021/06/02 13:12:17;;;;;;;2.53;1.85;;;;;;;;;;10319329;28;20065;-67
2021/06/02 13:17:14;;;;;;;10.63;2.80;;;;;;;;;;10315536;28;20660;-67
2021/06/02 13:22:19;;;;;;;3.75;1.92;;;;;;;;;;10295141;28;20415;-66
2021/06/02 13:27:19;;;;;;;2.15;1.38;;;;;;;;;;10327125;28;20060;-65
2021/06/02 13:32:16;;;;;;;3.25;1.05;;;;;;;;;;10323021;28;20029;-65
2021/06/02 13:37:18;;;;;;;2.83;1.45;;;;;;;;;;10321059;28;20040;-65
2021/06/02 13:42:15;;;;;;;4.00;2.05;;;;;;;;;;10308653;28;20063;-66
2021/06/02 13:47:13;;;;;;;7.73;2.60;;;;;;;;;;10287636;28;20129;-65
2021/06/02 13:52:10;;;;;;;2.80;2.60;;;;;;;;;;10329625;28;20534;-66
2021/06/02 13:57:13;;;;;;;7.67;1.97;;;;;;;;;;10313621;28;20055;-65
2021/06/02 14:02:15;;;;;;;2.40;2.20;;;;;;;;;;10319754;28;20071;-65
2021/06/02 14:07:14;;;;;;;2.75;2.15;;;;;;;;;;10301558;28;20036;-66
2021/06/02 14:12:12;;;;;;;5.53;2.50;;;;;;;;;;10321129;28;20046;-65
2021/06/02 14:17:10;;;;;;;2.13;1.92;;;;;;;;;;10312813;28;20046;-66
2021/06/02 14:22:08;;;;;;;5.68;1.75;;;;;;;;;;10298691;28;20082;-65
2021/06/02 14:27:06;;;;;;;3.08;2.45;;;;;;;;;;10298678;28;20132;-66
2021/06/02 14:32:07;;;;;;;3.85;1.58;;;;;;;;;;10327702;28;20129;-66
2021/06/02 14:37:05;;;;;;;2.05;1.85;;;;;;;;;;10336769;28;20048;-65
2021/06/02 14:42:04;;;;;;;3.72;2.67;;;;;;;;;;10324505;28;20044;-67
2021/06/02 14:47:02;;;;;;;4.65;2.45;;;;;;;;;;10343565;28;20039;-66
2021/06/02 14:52:00;;;;;;;3.88;3.08;;;;;;;;;;10310592;28;20040;-65
2021/06/02 14:56:58;;;;;;;5.75;2.63;;;;;;;;;;10335096;28;20040;-65
2021/06/02 15:01:55;;;;;;;4.95;3.00;;;;;;;;;;10332077;28;20040;-65
2021/06/02 15:06:53;;;;;;;7.82;3.00;;;;;;;;;;10332505;28;20646;-65
2021/06/02 15:11:51;;;;;;;3.80;3.03;;;;;;;;;;10320900;28;20507;-65
2021/06/02 15:16:50;;;;;;;5.65;3.00;;;;;;;;;;10287724;28;20059;-66
2021/06/02 15:21:48;;;;;;;4.95;3.42;;;;;;;;;;10313002;28;20122;-67
2021/06/02 15:26:48;;;;;;;2.60;2.13;;;;;;;;;;10310129;28;20036;-66
2021/06/02 15:31:46;;;;;;;8.32;2.92;;;;;;;;;;10312737;28;20657;-65
2021/06/02 15:36:44;;;;;;;3.78;2.70;;;;;;;;;;10342678;28;20434;-65
2021/06/02 15:41:41;;;;;;;7.25;4.40;;;;;;;;;;10329442;28;20021;-66
2021/06/02 15:46:39;;;;;;;3.22;2.78;;;;;;;;;;10332887;28;20368;-65
2021/06/02 15:51:37;;;;;;;5.07;2.60;;;;;;;;;;10330776;28;20029;-65
2021/06/02 15:56:38;;;;;;;7.13;4.03;;;;;;;;;;10329893;28;20116;-65
2021/06/02 16:01:36;;;;;;;8.27;4.00;;;;;;;;;;10326135;28;20045;-65
2021/06/02 16:06:33;;;;;;;5.53;3.05;;;;;;;;;;10327904;28;20048;-66
2021/06/02 16:11:31;;;;;;;5.75;3.75;;;;;;;;;;10325397;28;20029;-65
2021/06/02 16:16:29;;;;;;;3.88;3.15;;;;;;;;;;10314862;28;20033;-65
2021/06/02 16:21:26;;;;;;;5.93;3.22;;;;;;;;;;10288185;28;20049;-66
2021/06/02 16:26:25;;;;;;;4.80;3.03;;;;;;;;;;10330361;28;20433;-65
2021/06/02 16:31:27;;;;;;;9.38;3.30;;;;;;;;;;10325057;28;20068;-62
2021/06/02 16:36:24;;;;;;;5.93;3.20;;;;;;;;;;10304205;28;20076;-61
2021/06/02 16:41:22;;;;;;;5.18;3.35;;;;;;;;;;10297664;28;20057;-62
2021/06/02 16:46:19;;;;;;;4.88;3.15;;;;;;;;;;10305368;28;20033;-62
2021/06/02 16:51:20;;;;;;;4.70;3.33;;;;;;;;;;10299386;28;20033;-62
2021/06/02 16:56:21;;;;;;;6.57;3.58;;;;;;;;;;10315326;28;20029;-62
2021/06/02 17:01:21;;;;;;;5.10;3.50;;;;;;;;;;10313774;28;20039;-62
2021/06/02 17:06:18;;;;;;;7.82;3.55;;;;;;;;;;10320703;28;20487;-62
2021/06/02 17:11:16;;;;;;;6.82;3.35;;;;;;;;;;10312802;28;20106;-62
2021/06/02 17:16:15;;;;;;;5.38;2.97;;;;;;;;;;10315421;28;20039;-62
2021/06/02 17:21:13;;;;;;;7.72;3.38;;;;;;;;;;10320299;28;20039;-62
2021/06/02 17:26:11;;;;;;;5.90;3.90;;;;;;;;;;10297707;28;20045;-62
2021/06/02 17:31:09;;;;;;;6.78;4.00;;;;;;;;;;10300858;28;20033;-61
2021/06/02 17:36:06;;;;;;;9.00;3.25;;;;;;;;;;10320896;28;20029;-61
2021/06/02 17:41:04;;;;;;;3.35;2.60;;;;;;;;;;10322035;28;20033;-62
2021/06/02 17:46:01;;;;;;;5.63;3.43;;;;;;;;;;10335836;28;20519;-62
2021/06/02 17:51:00;;;;;;;5.20;3.80;;;;;;;;;;10323009;28;20266;-61
2021/06/02 17:55:59;;;;;;;5.07;3.60;;;;;;;;;;10332171;28;20684;-61
2021/06/02 18:00:57;;;;;;;5.15;3.30;;;;;;;;;;10325588;28;20044;-61
2021/06/02 18:05:54;;;;;;;7.75;2.75;;;;;;;;;;10316986;28;20037;-61
2021/06/02 18:10:51;;;;;;;6.85;2.78;;;;;;;;;;10339943;28;20032;-61
2021/06/02 18:15:49;;;;;;;7.25;3.67;;;;;;;;;;10319513;28;20073;-62
2021/06/02 18:20:49;;;;;;;4.85;3.85;;;;;;;;;;10318377;28;20040;-61
2021/06/02 18:25:49;;;;;;;3.20;2.22;;;;;;;;;;10349497;28;20033;-61
2021/06/02 18:30:47;;;;;;;7.57;2.90;;;;;;;;;;10338464;28;20518;-62
2021/06/02 18:35:44;;;;;;;5.18;3.95;;;;;;;;;;10311421;28;20033;-61
2021/06/02 18:40:42;;;;;;;5.10;3.47;;;;;;;;;;10332058;28;20045;-61
2021/06/02 18:45:39;;;;;;;4.88;3.50;;;;;;;;;;10335740;28;20033;-61
2021/06/02 18:50:37;;;;;;;6.03;2.47;;;;;;;;;;10335329;28;20036;-62
2021/06/02 18:55:38;;;;;;;7.47;2.65;;;;;;;;;;10345745;28;20090;-61
2021/06/02 19:00:38;;;;;;;7.50;3.80;;;;;;;;;;10327268;28;20033;-62
2021/06/02 19:05:37;;;;;;;7.32;3.85;;;;;;;;;;10337932;28;20033;-62
2021/06/02 19:10:35;;;;;;;7.82;3.20;;;;;;;;;;10309549;28;20041;-61
2021/06/02 19:15:32;;;;;;;6.68;3.45;;;;;;;;;;10329729;28;20041;-61
2021/06/02 19:20:30;;;;;;;5.72;3.83;;;;;;;;;;10329284;28;20124;-61
2021/06/02 19:25:27;;;;;;;7.18;3.88;;;;;;;;;;10340699;28;20043;-61
2021/06/02 19:30:25;;;;;;;6.78;3.83;;;;;;;;;;10331189;28;20037;-61
2021/06/02 19:35:23;;;;;;;5.88;3.72;;;;;;;;;;10322835;28;20045;-61
2021/06/02 19:40:22;;;;;;;3.45;2.38;;;;;;;;;;10313661;28;20033;-61
2021/06/02 19:45:20;;;;;;;2.45;1.75;;;;;;;;;;10330956;28;20041;-61
2021/06/02 19:50:17;;;;;;;4.20;2.88;;;;;;;;;;10327199;28;20067;-61
2021/06/02 19:55:15;;;;;;;3.00;1.95;;;;;;;;;;10303291;28;20148;-60
2021/06/02 20:00:13;;;;;;;3.83;2.80;;;;;;;;;;10317585;28;20041;-60
2021/06/02 20:05:11;;;;;;;3.80;2.40;;;;;;;;;;10310108;28;20152;-61
2021/06/02 20:10:09;;;;;;;0.63;0.60;;;;;;;;;;10325959;28;20025;-60
2021/06/02 20:15:08;;;;;;;3.08;1.25;;;;;;;;;;10326790;28;20032;-61
2021/06/02 20:20:07;;;;;;;9.13;5.32;;;;;;;;;;10334567;28;20033;-61
2021/06/02 20:25:06;;;;;;;6.10;4.88;;;;;;;;;;10319519;28;20037;-61
2021/06/02 20:30:08;;;;;;;9.50;4.75;;;;;;;;;;10324307;28;20637;-61
2021/06/02 20:35:08;;;;;;;6.60;5.18;;;;;;;;;;10315815;28;20033;-61
2021/06/02 20:40:07;;;;;;;8.25;5.13;;;;;;;;;;10330903;28;20117;-61
2021/06/02 20:45:06;;;;;;;8.07;5.43;;;;;;;;;;10323401;28;20037;-60
2021/06/02 20:50:04;;;;;;;5.57;4.90;;;;;;;;;;10303435;28;20026;-61
2021/06/02 20:55:03;;;;;;;7.05;5.07;;;;;;;;;;10323530;28;20041;-61
2021/06/02 21:00:03;;;;;;;5.82;5.25;;;;;;;;;;10328425;28;20691;-61
2021/06/02 21:05:01;;;;;;;7.80;5.57;;;;;;;;;;10304228;28;20757;-61
2021/06/02 21:09:58;;;;;;;;;;;;;;;;;;10334117;28;20463;-60
2021/06/02 21:14:56;;;;;;;10.27;5.30;;;;;;;;;;10331282;28;19963;-60
2021/06/02 21:19:53;;;;;;;7.07;6.00;;;;;;;;;;10328966;28;20040;-61
2021/06/02 21:24:51;;;;;;;;;;;;;;;;;;10316893;28;20286;-61
2021/06/02 21:29:48;;;;;;;7.07;5.63;;;;;;;;;;10330511;28;19920;-60
2021/06/02 21:34:45;;;;;;;;;;;;;;;;;;10330794;28;20047;-61
2021/06/02 21:39:43;;;;;;;6.53;4.80;;;;;;;;;;10320471;28;19920;-61
2021/06/02 21:44:40;;;;;;;;;;;;;;;;;;10323823;28;20037;-61
2021/06/02 21:49:38;;;;;;;7.65;5.10;;;;;;;;;;10328937;28;19917;-60
2021/06/02 21:54:36;;;;;;;;;;;;;;;;;;10328552;28;20033;-61
2021/06/02 21:59:34;;;;;;;10.37;4.93;;;;;;;;;;10323927;28;19950;-60
2021/06/02 22:04:31;;;;;;;;;;;;;;;;;;10323836;28;20090;-61
2021/06/02 22:09:28;;;;;;;6.07;4.10;;;;;;;;;;10305544;28;19924;-61
2021/06/02 22:14:26;;;;;;;10.60;4.20;;;;;;;;;;10323966;28;20196;-61
2021/06/02 22:19:24;;;;;;;8.37;4.30;;;;;;;;;;10330842;28;20107;-59
2021/06/02 22:24:21;;;;;;;;;;;;;;;;;;10329401;28;20122;-60
2021/06/02 22:29:18;;;;;;;6.47;4.30;;;;;;;;;;10336884;28;19921;-61
2021/06/02 22:34:17;;;;;;;3.55;2.72;;;;;;;;;;10334306;28;20033;-61
2021/06/02 22:39:14;;;;;;;4.60;3.30;;;;;;;;;;10326926;28;20063;-61
2021/06/02 22:44:12;;;;;;;7.03;4.20;;;;;;;;;;10312959;28;20036;-61
2021/06/02 22:49:09;;;;;;;8.53;3.77;;;;;;;;;;10323931;28;20045;-60
2021/06/02 22:54:07;;;;;;;7.63;4.90;;;;;;;;;;10337340;28;20036;-61
2021/06/02 22:59:04;;;;;;;9.57;5.30;;;;;;;;;;10329403;28;20041;-61
2021/06/02 23:04:02;;;;;;;6.30;5.28;;;;;;;;;;10338559;28;20178;-60
2021/06/02 23:09:00;;;;;;;5.93;4.87;;;;;;;;;;10316122;28;20033;-61
2021/06/02 23:13:57;;;;;;;7.17;4.93;;;;;;;;;;10348777;28;20264;-61
2021/06/02 23:18:55;;;;;;;5.72;4.32;;;;;;;;;;10339290;28;20488;-61
2021/06/02 23:23:53;;;;;;;8.02;5.28;;;;;;;;;;10337018;28;20024;-60
2021/06/02 23:28:51;;;;;;;5.70;4.28;;;;;;;;;;10315647;28;20041;-61
2021/06/02 23:33:48;;;;;;;4.50;3.33;;;;;;;;;;10320597;28;20037;-61
2021/06/02 23:38:46;;;;;;;5.10;4.07;;;;;;;;;;10322930;28;20499;-60
2021/06/02 23:43:43;;;;;;;4.47;3.67;;;;;;;;;;10318330;28;20036;-60
2021/06/02 23:48:41;;;;;;;10.10;4.90;;;;;;;;;;10338293;28;20033;-61
2021/06/02 23:53:38;;;;;;;5.27;3.83;;;;;;;;;;10327089;28;20025;-60
2021/06/02 23:58:37;;;;;;;5.47;3.77;;;;;;;;;;10338988;28;20124;-60
